Lahaina, HI

10:40 PM HST on August 28, 2015 (GMT -1000)
Launiupoko | | Change Station
CLOSE
Current Station
Personal Weather Station
Location: Lahaina, HI
Elevation: 801 ft
Nearby Weather Stations

Elev 801 ft 20.86 °N, 156.64 °W | Updated 10 minutes ago

Partly Cloudy
Partly Cloudy
78.5 °F
Feels Like 81 °F
N
1.0
Wind Variable Wind from East
Gusts 2.0 mph

Today
High -- | Low -- °F
--% Chance of Precip.
Yesterday
High -- | Low -- °F
Precip. -- in
6:09 AM 6:46 PM
Full, 100% visible
Pressure 29.94 in
Visibility 10.0 miles
Clouds Few 6000 ft
Heat Index 81 °F
Dew Point 72 °F
Humidity 79%
Rainfall 0.00 in
Snow Depth Not available.
UV 0 out of 12
Pollen Not available.
Air Quality Not available.
Flu Activity Not available.
METAR PHOG 290754Z 06010KT 10SM FEW060 27/21 A2992 RMK AO2 SLP137 T02670211
Pressure 29.94 in
Visibility 10.0 miles
Clouds Few 6000 ft
Heat Index 81 °F
Dew Point 72 °F
Humidity 79%
Rainfall 0.00 in
Snow Depth Not available.
UV 0 out of 12
Pollen Not available.
Air Quality Not available.
Flu Activity Not available.
METAR PHOG 290754Z 06010KT 10SM FEW060 27/21 A2992 RMK AO2 SLP137 T02670211
The busy hurricane season continues as Hurricane Ignacio may threaten The Big Island Monday. Ignacio is expected to strengthen into a Category 2 hurricane later today, before possibly weakening to a Category 1 storm Monday. The most likely scenario is that storm will pass to the north of Hawaii, there is enough difference is guidance to suggest that residents should prepare for the storm.

10-Day Weather Forecast

×

Almanac

Astronomy

Aug. 28, 2015 Rise Set
Actual Time
Civil Twilight
Nautical Twilight
Astronomical Twilight
Moon
Length of Visible Light
Length of Day
Tomorrow will be .
, % of the Moon is Illuminated

Today's Extremes

State Highs State Lows

Community

WunderPhotos

Upload Photos

1,850,634 photos uploaded!

WunderBlogs® & News

Nearby

Air Quality

  Air Quality AQ Index Pollutant
Not available.

Snow Depth

Station Depth Elevation

Earthquake Activity

City Distance Mag. Time & Date
Minimum magnitude displayed is 2.5.

Coastal Water Temperatures

Place Temperature

Stations

Nearby Weather Stations

Station Location Temp. Windchill Dew Point Humidity Wind Precip. Elev Updated Type